createdAt,value
2022-11-05T00:01:02.609Z,8.50
2022-11-05T00:03:48.795Z,7.80
2022-11-05T00:06:34.982Z,8.90
2022-11-05T00:09:20.255Z,8.90
2022-11-05T00:12:05.567Z,8.77
2022-11-05T00:14:55.651Z,9.10
2022-11-05T00:17:22.499Z,8.60
2022-11-05T00:19:49.243Z,9.27
2022-11-05T00:22:34.875Z,9.40
2022-11-05T00:25:16.957Z,9.73
2022-11-05T00:27:45.441Z,9.07
2022-11-05T00:30:16.891Z,10.23
2022-11-05T00:32:44.053Z,9.77
2022-11-05T00:35:11.342Z,10.03
2022-11-05T00:37:38.608Z,10.20
2022-11-05T00:40:06.038Z,10.90
2022-11-05T00:42:51.953Z,11.80
2022-11-05T00:45:19.102Z,13.33
2022-11-05T00:48:04.562Z,11.93
2022-11-05T00:50:32.241Z,13.20
2022-11-05T00:53:00.664Z,14.40
2022-11-05T00:55:47.747Z,14.27
2022-11-05T00:58:19.556Z,14.30
2022-11-05T01:01:05.021Z,13.87
2022-11-05T01:03:36.691Z,16.90
2022-11-05T01:06:16.735Z,15.00
2022-11-05T01:08:45.116Z,13.90
2022-11-05T01:11:13.182Z,14.43
2022-11-05T01:13:40.633Z,13.87
2022-11-05T01:16:09.948Z,12.53
2022-11-05T01:18:38.871Z,13.57
2022-11-05T01:21:15.975Z,11.43
2022-11-05T01:23:43.027Z,12.57
2022-11-05T01:26:09.981Z,11.93
2022-11-05T01:28:36.810Z,11.60
2022-11-05T01:31:03.902Z,11.63
2022-11-05T01:33:30.648Z,11.93
2022-11-05T01:35:57.798Z,10.43
2022-11-05T01:38:24.729Z,12.93
2022-11-05T01:40:53.291Z,11.40
2022-11-05T01:43:22.427Z,12.57
2022-11-05T01:45:53.028Z,11.60
2022-11-05T01:48:33.879Z,11.30
2022-11-05T01:51:11.893Z,12.50
2022-11-05T01:53:55.630Z,12.30
2022-11-05T01:56:29.201Z,11.50
2022-11-05T01:59:01.246Z,11.57
2022-11-05T02:01:30.429Z,11.30
2022-11-05T02:04:03.659Z,11.80
2022-11-05T02:06:33.555Z,11.90
2022-11-05T02:09:03.546Z,12.30
2022-11-05T02:11:30.855Z,11.43
2022-11-05T02:13:58.000Z,11.93
2022-11-05T02:16:40.252Z,11.00
2022-11-05T02:19:26.424Z,11.67
2022-11-05T02:22:12.007Z,12.77
2022-11-05T02:24:41.998Z,12.17
2022-11-05T02:27:09.235Z,12.67
2022-11-05T02:29:42.727Z,11.63
2022-11-05T02:32:15.266Z,11.67
2022-11-05T02:35:14.964Z,10.53
2022-11-05T02:38:06.735Z,12.27
2022-11-05T02:40:34.240Z,11.60
2022-11-05T02:43:15.201Z,10.93
2022-11-05T02:45:52.085Z,11.83
2022-11-05T02:48:31.608Z,11.43
2022-11-05T02:51:06.675Z,11.00
2022-11-05T02:53:46.030Z,11.93
2022-11-05T02:56:23.011Z,11.50
2022-11-05T02:58:50.278Z,11.80
2022-11-05T03:01:17.661Z,11.33
2022-11-05T03:03:51.722Z,11.40
2022-11-05T03:06:33.970Z,10.97
2022-11-05T03:09:15.975Z,10.67
2022-11-05T03:12:27.178Z,11.33
2022-11-05T03:15:21.501Z,9.93
2022-11-05T03:18:13.944Z,10.27
2022-11-05T03:20:45.484Z,12.10
2022-11-05T03:23:15.448Z,12.00
2022-11-05T03:25:45.739Z,10.87
2022-11-05T03:28:13.879Z,10.97
2022-11-05T03:30:41.755Z,10.27
2022-11-05T03:33:13.576Z,10.77
2022-11-05T03:35:44.387Z,10.50
2022-11-05T03:38:14.591Z,10.87
2022-11-05T03:40:43.416Z,10.37
2022-11-05T03:43:10.872Z,10.43
2022-11-05T03:45:41.534Z,10.03
2022-11-05T03:48:10.890Z,10.17
2022-11-05T03:50:41.240Z,11.47
2022-11-05T03:53:19.761Z,9.47
2022-11-05T03:56:05.682Z,11.00
2022-11-05T03:58:32.926Z,11.07
2022-11-05T04:01:02.154Z,10.77
2022-11-05T04:03:36.088Z,11.13
2022-11-05T04:06:22.927Z,10.57
2022-11-05T04:09:08.849Z,10.73
2022-11-05T04:11:55.098Z,11.73
2022-11-05T04:14:22.507Z,11.10
2022-11-05T04:17:09.628Z,11.37
2022-11-05T04:19:59.358Z,13.03
2022-11-05T04:22:46.306Z,11.10
2022-11-05T04:25:14.166Z,11.47
2022-11-05T04:27:41.507Z,10.47
2022-11-05T04:30:18.503Z,11.03
2022-11-05T04:33:00.967Z,10.50
2022-11-05T04:35:29.250Z,11.57
2022-11-05T04:37:56.662Z,11.80
2022-11-05T04:40:23.932Z,10.70
2022-11-05T04:42:51.568Z,11.30
2022-11-05T04:45:18.762Z,11.57
2022-11-05T04:47:45.919Z,11.00
2022-11-05T04:50:13.314Z,12.07
2022-11-05T04:52:40.830Z,14.47
2022-11-05T04:55:08.557Z,12.53
2022-11-05T04:57:35.693Z,12.30
2022-11-05T05:00:03.397Z,13.87
2022-11-05T05:02:30.492Z,12.37
2022-11-05T05:04:57.685Z,12.07
2022-11-05T05:07:25.770Z,11.63
2022-11-05T05:09:54.616Z,11.37
2022-11-05T05:12:22.114Z,11.90
2022-11-05T05:14:49.593Z,12.63
2022-11-05T05:17:16.686Z,12.63
2022-11-05T05:20:02.302Z,12.80
2022-11-05T05:22:29.493Z,15.90
2022-11-05T05:24:56.792Z,13.27
2022-11-05T05:27:25.991Z,14.00
2022-11-05T05:29:53.053Z,14.77
2022-11-05T05:32:20.149Z,14.63
2022-11-05T05:34:47.240Z,12.93
2022-11-05T05:37:14.350Z,14.57
2022-11-05T05:39:41.401Z,13.40
2022-11-05T05:42:08.471Z,15.93
2022-11-05T05:44:35.542Z,15.10
2022-11-05T05:47:02.658Z,15.07
2022-11-05T05:49:29.757Z,13.97
2022-11-05T05:51:57.419Z,14.37
2022-11-05T05:54:30.737Z,14.30
2022-11-05T05:56:59.382Z,14.63
2022-11-05T05:59:26.468Z,15.00
2022-11-05T06:01:53.697Z,14.27
2022-11-05T06:04:20.952Z,14.93
2022-11-05T06:06:48.355Z,16.70
2022-11-05T06:09:15.582Z,15.30
2022-11-05T06:11:42.999Z,13.40
2022-11-05T06:14:10.846Z,14.93
2022-11-05T06:16:38.995Z,15.13
2022-11-05T06:19:09.121Z,14.80
2022-11-05T06:21:36.443Z,15.43
2022-11-05T06:24:03.846Z,14.67
2022-11-05T06:26:31.111Z,14.50
2022-11-05T06:28:58.252Z,14.67
2022-11-05T06:31:25.449Z,14.83
2022-11-05T06:33:52.571Z,15.00
2022-11-05T06:36:20.265Z,15.57
2022-11-05T06:38:47.588Z,16.07
2022-11-05T06:41:14.762Z,15.20
2022-11-05T06:43:41.926Z,14.50
2022-11-05T06:46:10.370Z,14.80
2022-11-05T06:48:37.732Z,16.07
2022-11-05T06:51:05.459Z,15.37
2022-11-05T06:53:32.733Z,16.10
2022-11-05T06:56:02.613Z,15.83
2022-11-05T06:58:30.845Z,16.83
2022-11-05T07:01:02.932Z,16.60
2022-11-05T07:03:30.488Z,16.77
2022-11-05T07:06:00.158Z,16.60
2022-11-05T07:08:27.900Z,16.30
2022-11-05T07:10:55.042Z,16.60
2022-11-05T07:13:22.200Z,18.73
2022-11-05T07:15:49.325Z,17.13
2022-11-05T07:18:16.470Z,18.03
2022-11-05T07:20:43.630Z,18.97
2022-11-05T07:23:12.180Z,18.33
2022-11-05T07:25:39.895Z,17.40
2022-11-05T07:28:07.460Z,17.27
2022-11-05T07:30:34.976Z,16.83
2022-11-05T07:33:02.124Z,20.03
2022-11-05T07:35:29.331Z,18.10
2022-11-05T07:37:56.538Z,19.40
2022-11-05T07:40:24.909Z,19.27
2022-11-05T07:42:53.192Z,17.80
2022-11-05T07:45:20.908Z,18.73
2022-11-05T07:47:49.152Z,18.17
2022-11-05T07:50:17.512Z,22.70
2022-11-05T07:52:45.152Z,20.03
2022-11-05T07:55:13.428Z,19.63
2022-11-05T07:57:45.115Z,19.07
2022-11-05T08:00:13.930Z,19.43
2022-11-05T08:02:41.771Z,20.13
2022-11-05T08:05:10.206Z,18.77
2022-11-05T08:07:37.439Z,19.50
2022-11-05T08:10:04.794Z,20.47
2022-11-05T08:12:32.470Z,19.33
2022-11-05T08:14:59.790Z,19.57
2022-11-05T08:17:26.907Z,20.10
2022-11-05T08:19:54.168Z,20.60
2022-11-05T08:22:21.723Z,19.70
2022-11-05T08:24:48.797Z,21.27
2022-11-05T08:27:16.166Z,18.53
2022-11-05T08:29:43.275Z,18.50
2022-11-05T08:32:10.515Z,18.87
2022-11-05T08:34:37.671Z,17.63
2022-11-05T08:37:04.816Z,18.40
2022-11-05T08:39:31.994Z,17.10
2022-11-05T08:41:59.566Z,18.47
2022-11-05T08:44:26.657Z,17.23
2022-11-05T08:46:54.338Z,18.50
2022-11-05T08:49:21.509Z,17.97
2022-11-05T08:51:48.568Z,18.43
2022-11-05T08:54:15.696Z,15.43
2022-11-05T08:56:42.789Z,15.27
2022-11-05T08:59:09.914Z,14.53
2022-11-05T09:01:37.118Z,14.33
2022-11-05T09:04:04.405Z,14.37
2022-11-05T09:06:31.570Z,13.97
2022-11-05T09:08:58.633Z,14.63
2022-11-05T09:11:43.048Z,14.73
2022-11-05T09:14:13.114Z,13.37
2022-11-05T09:16:40.225Z,13.77
2022-11-05T09:19:07.373Z,13.20
2022-11-05T09:21:34.679Z,12.53
2022-11-05T09:24:01.745Z,13.70
2022-11-05T09:26:29.175Z,14.13
2022-11-05T09:28:56.294Z,14.00
2022-11-05T09:31:23.405Z,12.83
2022-11-05T09:33:50.776Z,12.40
2022-11-05T09:36:17.930Z,12.17
2022-11-05T09:38:45.137Z,11.23
2022-11-05T09:41:19.653Z,12.20
2022-11-05T09:43:49.076Z,11.60
2022-11-05T09:46:19.659Z,11.63
2022-11-05T09:48:48.679Z,11.93
2022-11-05T09:51:23.509Z,11.60
2022-11-05T09:53:51.340Z,11.23
2022-11-05T09:56:27.227Z,11.30
2022-11-05T09:58:57.368Z,11.50
2022-11-05T10:01:26.712Z,10.57
2022-11-05T10:03:57.431Z,10.97
2022-11-05T10:06:28.446Z,10.17
2022-11-05T10:09:00.686Z,10.20
2022-11-05T10:11:37.322Z,9.00
2022-11-05T10:14:11.624Z,8.43
2022-11-05T10:16:41.622Z,9.27
2022-11-05T10:19:10.434Z,8.90
2022-11-05T10:22:05.095Z,8.63
2022-11-05T10:24:25.461Z,8.30
2022-11-05T10:26:53.854Z,8.47
2022-11-05T10:29:29.532Z,8.00
2022-11-05T10:32:00.519Z,8.13
2022-11-05T10:34:34.935Z,9.03
2022-11-05T10:37:02.135Z,8.67
2022-11-05T10:39:30.643Z,8.73
2022-11-05T10:42:22.061Z,8.63
2022-11-05T10:45:25.458Z,7.83
2022-11-05T10:48:19.658Z,7.40
2022-11-05T10:50:47.067Z,7.47
2022-11-05T10:53:25.807Z,7.20
2022-11-05T10:55:58.502Z,6.93
2022-11-05T10:58:34.771Z,6.32
2022-11-05T11:01:08.528Z,6.65
2022-11-05T11:03:35.214Z,6.22
2022-11-05T11:06:05.297Z,6.43
2022-11-05T11:08:35.602Z,6.60
2022-11-05T11:11:12.309Z,6.88
2022-11-05T11:13:57.279Z,6.65
2022-11-05T11:16:26.213Z,6.38
2022-11-05T11:19:00.502Z,5.85
2022-11-05T11:21:29.007Z,5.95
2022-11-05T11:23:57.545Z,5.93
2022-11-05T11:26:28.049Z,6.43
2022-11-05T11:28:57.903Z,5.45
2022-11-05T11:31:28.349Z,4.97
2022-11-05T11:34:02.068Z,5.10
2022-11-05T11:36:44.377Z,4.72
2022-11-05T11:39:19.928Z,5.60
2022-11-05T11:41:51.195Z,6.00
2022-11-05T11:44:20.799Z,5.15
2022-11-05T11:46:52.421Z,5.97
2022-11-05T11:49:42.346Z,4.00
2022-11-05T11:52:15.072Z,3.80
2022-11-05T11:54:42.124Z,4.28
2022-11-05T11:57:30.825Z,4.15
2022-11-05T12:00:08.725Z,4.15
2022-11-05T12:03:09.245Z,5.25
2022-11-05T12:05:45.279Z,6.50
2022-11-05T12:08:33.555Z,4.90
2022-11-05T12:11:07.504Z,4.82
2022-11-05T12:13:43.245Z,4.53
2022-11-05T12:16:15.943Z,4.47
2022-11-05T12:19:10.658Z,4.40
2022-11-05T12:21:52.982Z,4.93
2022-11-05T12:24:28.994Z,4.35
2022-11-05T12:27:20.923Z,4.13
2022-11-05T12:29:47.589Z,4.35
2022-11-05T12:32:33.325Z,4.87
2022-11-05T12:35:44.214Z,4.63
2022-11-05T12:38:22.459Z,4.33
2022-11-05T12:40:59.152Z,4.50
2022-11-05T12:43:51.675Z,6.70
2022-11-05T12:46:27.662Z,4.73
2022-11-05T12:48:54.300Z,4.13
2022-11-05T12:51:43.936Z,4.55
2022-11-05T12:54:28.984Z,4.40
2022-11-05T12:57:03.301Z,4.53
2022-11-05T12:59:47.987Z,4.53
2022-11-05T13:02:28.797Z,4.47
2022-11-05T13:05:23.606Z,3.70
2022-11-05T13:08:22.866Z,4.23
2022-11-05T13:11:29.403Z,3.50
2022-11-05T13:14:16.309Z,3.90
2022-11-05T13:17:23.404Z,4.10
2022-11-05T13:19:59.547Z,3.80
2022-11-05T13:22:26.226Z,4.03
2022-11-05T13:24:59.439Z,3.50
2022-11-05T13:27:44.523Z,4.10
2022-11-05T13:30:38.147Z,3.97
2022-11-05T13:33:18.827Z,4.07
2022-11-05T13:36:24.911Z,3.30
2022-11-05T13:39:00.204Z,3.33
2022-11-05T13:41:45.642Z,4.43
2022-11-05T13:44:47.119Z,4.40
2022-11-05T13:47:55.605Z,4.00
2022-11-05T13:50:59.867Z,5.20
2022-11-05T13:53:52.072Z,5.00
2022-11-05T13:56:54.405Z,4.40
2022-11-05T13:59:35.780Z,3.77
2022-11-05T14:02:10.810Z,4.00
2022-11-05T14:05:01.926Z,2.83
2022-11-05T14:07:35.812Z,3.10
2022-11-05T14:10:32.155Z,3.37
2022-11-05T14:13:03.054Z,3.20
2022-11-05T14:15:30.908Z,2.77
2022-11-05T14:18:26.475Z,2.90
2022-11-05T14:21:02.302Z,2.90
2022-11-05T14:23:39.430Z,3.27
2022-11-05T14:26:12.539Z,3.00
2022-11-05T14:28:47.993Z,3.00
2022-11-05T14:32:07.835Z,3.37
2022-11-05T14:34:43.528Z,3.07
2022-11-05T14:37:10.249Z,3.87
2022-11-05T14:39:37.369Z,3.97
2022-11-05T14:42:11.856Z,3.27
2022-11-05T14:44:57.171Z,3.20
2022-11-05T14:47:27.611Z,3.20
2022-11-05T14:50:03.218Z,3.33
2022-11-05T14:52:30.049Z,3.20
2022-11-05T14:54:58.512Z,3.37
2022-11-05T14:57:43.210Z,3.80
2022-11-05T15:00:28.512Z,4.03
2022-11-05T15:03:04.110Z,4.77
2022-11-05T15:06:03.158Z,3.70
2022-11-05T15:08:29.793Z,3.60
2022-11-05T15:11:13.071Z,3.70
2022-11-05T15:14:11.778Z,3.90
2022-11-05T15:16:44.672Z,3.60
2022-11-05T15:19:31.466Z,3.30
2022-11-05T15:22:03.115Z,3.60
2022-11-05T15:24:30.885Z,3.37
2022-11-05T15:27:03.418Z,3.80
2022-11-05T15:29:32.824Z,4.37
2022-11-05T15:32:00.369Z,3.47
2022-11-05T15:34:32.561Z,3.90
2022-11-05T15:37:23.623Z,4.00
2022-11-05T15:39:52.210Z,3.80
2022-11-05T15:42:22.988Z,3.37
2022-11-05T15:44:55.041Z,3.20
2022-11-05T15:47:24.566Z,3.20
2022-11-05T15:49:59.633Z,6.43
2022-11-05T15:52:36.567Z,4.07
2022-11-05T15:55:08.138Z,2.63
2022-11-05T15:57:39.852Z,2.63
2022-11-05T16:00:15.582Z,2.80
2022-11-05T16:02:42.853Z,2.57
2022-11-05T16:05:13.037Z,2.37
2022-11-05T16:07:47.218Z,2.43
2022-11-05T16:10:24.569Z,2.77
2022-11-05T16:12:51.498Z,2.30
2022-11-05T16:15:21.613Z,2.30
2022-11-05T16:17:57.608Z,2.87
2022-11-05T16:20:38.355Z,2.50
2022-11-05T16:23:07.941Z,2.30
2022-11-05T16:25:42.830Z,2.40
2022-11-05T16:28:25.704Z,2.13
2022-11-05T16:30:59.527Z,2.70
2022-11-05T16:33:38.717Z,2.60
2022-11-05T16:36:07.485Z,5.43
2022-11-05T16:38:34.253Z,2.53
2022-11-05T16:41:00.907Z,3.43
2022-11-05T16:43:27.730Z,3.00
2022-11-05T16:45:58.375Z,3.13
2022-11-05T16:48:26.201Z,3.27
2022-11-05T16:50:53.625Z,2.53
2022-11-05T16:53:20.338Z,2.60
2022-11-05T16:55:47.138Z,2.90
2022-11-05T16:58:25.019Z,2.97
2022-11-05T17:01:04.670Z,3.27
2022-11-05T17:03:31.510Z,3.07
2022-11-05T17:05:58.213Z,3.53
2022-11-05T17:08:24.955Z,2.87
2022-11-05T17:10:51.799Z,3.10
2022-11-05T17:13:19.604Z,3.50
2022-11-05T17:15:49.464Z,2.50
2022-11-05T17:18:18.788Z,3.83
2022-11-05T17:20:52.337Z,3.20
2022-11-05T17:23:21.575Z,3.40
2022-11-05T17:25:51.316Z,3.03
2022-11-05T17:28:20.397Z,2.93
2022-11-05T17:30:54.110Z,3.47
2022-11-05T17:33:23.160Z,3.17
2022-11-05T17:35:50.629Z,3.33
2022-11-05T17:38:17.636Z,3.00
2022-11-05T17:40:44.600Z,3.57
2022-11-05T17:43:11.740Z,3.20
2022-11-05T17:45:47.260Z,2.80
2022-11-05T17:48:15.272Z,2.70
2022-11-05T17:50:43.784Z,2.80
2022-11-05T17:53:12.040Z,2.90
2022-11-05T17:55:43.561Z,4.10
2022-11-05T17:58:10.773Z,3.60
2022-11-05T18:00:38.404Z,2.77
2022-11-05T18:03:05.353Z,2.93
2022-11-05T18:05:33.868Z,3.43
2022-11-05T18:08:00.846Z,3.50
2022-11-05T18:10:27.781Z,2.90
2022-11-05T18:12:54.503Z,3.27
2022-11-05T18:15:21.486Z,3.90
2022-11-05T18:17:48.276Z,3.60
2022-11-05T18:20:19.104Z,3.10
2022-11-05T18:22:49.228Z,3.57
2022-11-05T18:25:16.733Z,2.87
2022-11-05T18:27:44.083Z,3.77
2022-11-05T18:30:14.065Z,3.80
2022-11-05T18:32:41.326Z,3.00
2022-11-05T18:35:08.730Z,3.67
2022-11-05T18:37:37.766Z,5.17
2022-11-05T18:40:05.644Z,5.73
2022-11-05T18:42:32.330Z,4.60
2022-11-05T18:44:59.061Z,3.50
2022-11-05T18:47:25.921Z,3.83
2022-11-05T18:49:52.592Z,4.07
2022-11-05T18:52:19.254Z,3.47
2022-11-05T18:54:45.920Z,3.30
2022-11-05T18:57:12.653Z,3.43
2022-11-05T18:59:42.057Z,3.33
2022-11-05T19:02:11.074Z,3.50
2022-11-05T19:04:38.373Z,3.60
2022-11-05T19:07:06.154Z,3.57
2022-11-05T19:09:37.280Z,3.60
2022-11-05T19:12:05.082Z,4.23
2022-11-05T19:14:31.945Z,4.27
2022-11-05T19:16:59.623Z,3.83
2022-11-05T19:19:26.853Z,4.10
2022-11-05T19:21:53.987Z,3.80
2022-11-05T19:24:20.663Z,3.57
2022-11-05T19:26:48.061Z,3.70
2022-11-05T19:29:14.916Z,3.63
2022-11-05T19:31:41.928Z,3.50
2022-11-05T19:34:08.868Z,3.63
2022-11-05T19:36:35.653Z,3.67
2022-11-05T19:39:06.308Z,3.37
2022-11-05T19:41:33.199Z,3.70
2022-11-05T19:44:01.728Z,3.43
2022-11-05T19:46:30.288Z,3.87
2022-11-05T19:48:59.003Z,3.80
2022-11-05T19:51:27.674Z,4.50
2022-11-05T19:53:55.376Z,4.33
2022-11-05T19:56:25.999Z,4.57
2022-11-05T19:58:53.642Z,4.60
2022-11-05T20:01:22.012Z,4.33
2022-11-05T20:03:48.923Z,4.27
2022-11-05T20:06:25.773Z,4.60
2022-11-05T20:09:19.830Z,4.53
2022-11-05T20:11:40.145Z,5.07
2022-11-05T20:14:08.116Z,5.10
2022-11-05T20:16:40.190Z,5.00
2022-11-05T20:19:10.476Z,5.33
2022-11-05T20:21:38.169Z,4.30
2022-11-05T20:24:05.543Z,5.07
2022-11-05T20:26:32.800Z,4.50
2022-11-05T20:29:00.034Z,5.00
2022-11-05T20:31:26.947Z,4.70
2022-11-05T20:33:54.427Z,4.97
2022-11-05T20:36:22.901Z,4.93
2022-11-05T20:38:58.135Z,4.93
2022-11-05T20:41:26.017Z,5.03
2022-11-05T20:43:53.214Z,5.10
2022-11-05T20:46:21.825Z,5.17
2022-11-05T20:48:49.457Z,6.97
2022-11-05T20:51:18.835Z,4.70
2022-11-05T20:53:46.304Z,4.70
2022-11-05T20:56:17.135Z,5.60
2022-11-05T20:58:44.243Z,6.67
2022-11-05T21:01:13.147Z,4.73
2022-11-05T21:03:40.129Z,5.30
2022-11-05T21:06:07.622Z,4.90
2022-11-05T21:08:35.143Z,4.30
2022-11-05T21:11:02.886Z,5.40
2022-11-05T21:13:30.325Z,4.60
2022-11-05T21:15:58.756Z,5.37
2022-11-05T21:18:28.524Z,4.90
2022-11-05T21:20:55.896Z,4.30
2022-11-05T21:23:22.736Z,4.77
2022-11-05T21:25:49.816Z,5.43
2022-11-05T21:28:16.749Z,5.53
2022-11-05T21:30:45.916Z,4.70
2022-11-05T21:33:14.463Z,4.43
2022-11-05T21:35:45.436Z,5.53
2022-11-05T21:38:14.672Z,4.50
2022-11-05T21:40:41.844Z,4.10
2022-11-05T21:43:09.039Z,4.57
2022-11-05T21:45:38.756Z,5.10
2022-11-05T21:48:06.068Z,4.77
2022-11-05T21:50:51.467Z,4.50
2022-11-05T21:53:37.102Z,4.70
2022-11-05T21:56:32.138Z,5.23
2022-11-05T21:59:17.332Z,4.93
2022-11-05T22:01:44.131Z,4.47
2022-11-05T22:04:10.875Z,5.67
2022-11-05T22:06:37.538Z,4.60
2022-11-05T22:09:04.275Z,4.77
2022-11-05T22:11:36.095Z,4.93
2022-11-05T22:14:02.940Z,5.03
2022-11-05T22:16:29.722Z,4.67
2022-11-05T22:18:57.885Z,4.97
2022-11-05T22:21:24.728Z,4.87
2022-11-05T22:23:52.325Z,5.00
2022-11-05T22:26:19.106Z,4.37
2022-11-05T22:28:45.828Z,5.20
2022-11-05T22:31:16.862Z,5.30
2022-11-05T22:33:43.921Z,5.53
2022-11-05T22:36:11.327Z,5.90
2022-11-05T22:38:39.117Z,5.50
2022-11-05T22:41:17.437Z,5.70
2022-11-05T22:43:45.264Z,5.47
2022-11-05T22:46:21.282Z,5.27
2022-11-05T22:48:48.672Z,5.40
2022-11-05T22:51:18.645Z,4.67
2022-11-05T22:53:45.914Z,4.80
2022-11-05T22:56:15.312Z,5.30
2022-11-05T22:58:42.239Z,4.30
2022-11-05T23:01:11.792Z,4.67
2022-11-05T23:03:40.000Z,3.80
2022-11-05T23:06:30.195Z,4.10
2022-11-05T23:11:35.965Z,4.67
2022-11-05T23:14:03.134Z,3.73
2022-11-05T23:16:48.581Z,4.40
2022-11-05T23:19:34.136Z,4.50
2022-11-05T23:22:19.703Z,4.10
2022-11-05T23:24:47.461Z,4.17
2022-11-05T23:27:14.594Z,5.00
2022-11-05T23:29:41.290Z,3.73
2022-11-05T23:32:27.307Z,4.27
2022-11-05T23:34:56.478Z,4.43
2022-11-05T23:37:44.853Z,4.10
2022-11-05T23:40:16.538Z,4.00
2022-11-05T23:43:02.510Z,4.37
2022-11-05T23:45:49.298Z,4.40
2022-11-05T23:48:25.029Z,4.27
2022-11-05T23:51:14.834Z,4.20
2022-11-05T23:53:42.023Z,4.70
2022-11-05T23:56:10.590Z,4.10
2022-11-05T23:58:38.143Z,3.90
